Time;durP1;ratioP1;P1;durP2;ratioP2;P2;SDS_P1;SDS_P2;PMS_P1;PMS_P2;Temp;Humidity;BMP_temperature;BMP_pressure;BME280_temperature;BME280_humidity;BME280_pressure;Samples;Min_cycle;Max_cycle;Signal;HPM_P1;HPM_P2
2022/08/20 00:00:55;;;;;;;1062.30;972.45;;;24.20;99.90;;;;;;5037189;28;20211;-80
2022/08/20 00:03:27;;;;;;;1071.82;981.72;;;24.20;99.90;;;;;;5036281;28;20690;-81
2022/08/20 00:05:58;;;;;;;1057.57;967.97;;;24.20;99.90;;;;;;5034854;28;20203;-80
2022/08/20 00:08:24;;;;;;;1070.03;979.88;;;24.20;99.90;;;;;;5031595;28;20208;-80
2022/08/20 00:10:52;;;;;;;1075.95;985.58;;;24.10;99.90;;;;;;5039285;28;20207;-80
2022/08/20 00:13:22;;;;;;;1062.28;972.35;;;24.10;99.90;;;;;;5030892;28;20939;-80
2022/08/20 00:15:50;;;;;;;1055.55;966.13;;;24.20;99.90;;;;;;5026074;28;20686;-80
2022/08/20 00:18:17;;;;;;;1062.60;972.53;;;24.10;99.90;;;;;;5024477;28;20578;-80
2022/08/20 00:20:47;;;;;;;1056.88;967.22;;;24.10;99.90;;;;;;5020809;28;20191;-80
2022/08/20 00:23:16;;;;;;;1064.50;974.58;;;24.10;99.90;;;;;;5034915;28;20218;-79
2022/08/20 00:25:44;;;;;;;1065.93;976.05;;;24.10;99.90;;;;;;5039560;28;20207;-81
2022/08/20 00:28:11;;;;;;;1054.38;964.95;;;24.10;99.90;;;;;;5048631;28;20218;-80
2022/08/20 00:30:41;;;;;;;1065.50;975.67;;;24.10;99.90;;;;;;5038340;28;20195;-81
2022/08/20 00:33:10;;;;;;;1057.20;967.38;;;24.10;99.90;;;;;;5033826;28;20559;-79
2022/08/20 00:35:44;;;;;;;1053.37;963.90;;;24.10;99.90;;;;;;5034141;28;20662;-81
2022/08/20 00:38:11;;;;;;;1068.05;978.10;;;24.10;99.90;;;;;;5036085;28;20489;-81
2022/08/20 00:40:43;;;;;;;1055.47;965.97;;;24.10;99.90;;;;;;5043636;28;20210;-80
2022/08/20 00:43:29;;;;;;;1053.43;964.08;;;24.00;99.90;;;;;;5034924;28;20762;-81
2022/08/20 00:45:57;;;;;;;1053.55;963.85;;;24.00;99.90;;;;;;5034829;28;20567;-80
2022/08/20 00:48:27;;;;;;;1061.68;972.08;;;24.00;99.90;;;;;;5037115;28;20198;-80
2022/08/20 00:51:09;;;;;;;1053.78;964.53;;;24.00;99.90;;;;;;5043715;28;20202;-79
2022/08/20 00:53:37;;;;;;;1062.72;972.95;;;24.00;99.90;;;;;;5033583;28;20716;-80
2022/08/20 00:56:08;;;;;;;1060.75;971.03;;;24.00;99.90;;;;;;5034656;28;20191;-80
2022/08/20 00:58:36;;;;;;;1057.60;968.13;;;24.00;99.90;;;;;;5036182;28;20203;-80
2022/08/20 01:01:05;;;;;;;1068.70;978.67;;;23.90;99.90;;;;;;5033409;28;20195;-80
2022/08/20 01:03:32;;;;;;;1058.05;968.38;;;23.90;99.90;;;;;;5037536;28;20219;-82
2022/08/20 01:06:00;;;;;;;1061.60;971.97;;;23.90;99.90;;;;;;5035316;28;20230;-81
2022/08/20 01:08:27;;;;;;;1061.47;971.88;;;23.90;99.90;;;;;;5036357;28;20207;-81
2022/08/20 01:11:06;;;;;;;1041.97;953.00;;;23.90;99.90;;;;;;5037825;28;20195;-78
2022/08/20 01:13:37;;;;;;;1060.97;971.35;;;23.90;99.90;;;;;;5037354;28;20733;-81
2022/08/20 01:16:08;;;;;;;1058.68;969.08;;;23.90;99.90;;;;;;5037154;28;20392;-81
2022/08/20 01:18:38;;;;;;;1057.82;968.47;;;23.80;99.90;;;;;;5039474;28;20215;-81
2022/08/20 01:21:07;;;;;;;1046.22;957.10;;;23.80;99.90;;;;;;5032938;28;20199;-81
2022/08/20 01:23:41;;;;;;;1058.35;968.92;;;23.80;99.90;;;;;;5036503;28;20249;-81
2022/08/20 01:26:13;;;;;;;1059.80;970.13;;;23.80;99.90;;;;;;5034216;28;20674;-81
2022/08/20 01:28:43;;;;;;;1048.03;958.60;;;23.80;99.90;;;;;;5038035;28;20191;-81
2022/08/20 01:31:13;;;;;;;1053.85;964.33;;;23.80;99.90;;;;;;5033694;28;20218;-81
2022/08/20 01:33:40;;;;;;;1047.07;957.83;;;23.80;99.90;;;;;;5038353;28;20195;-81
2022/08/20 01:36:09;;;;;;;1058.65;969.08;;;23.80;99.90;;;;;;5038351;28;20203;-81
2022/08/20 01:38:37;;;;;;;1044.80;955.30;;;23.70;99.90;;;;;;5035450;28;20203;-80
2022/08/20 01:41:15;;;;;;;1044.82;955.50;;;23.80;99.90;;;;;;5030880;28;20670;-80
2022/08/20 01:43:42;;;;;;;1045.20;956.05;;;23.70;99.90;;;;;;5036231;28;20234;-80
2022/08/20 01:46:10;;;;;;;1052.85;963.38;;;23.70;99.90;;;;;;5038361;28;20203;-80
2022/08/20 01:48:37;;;;;;;1039.43;950.47;;;23.70;99.90;;;;;;5041582;28;20317;-80
2022/08/20 01:51:08;;;;;;;1052.88;963.40;;;23.70;99.90;;;;;;5042328;28;20206;-81
2022/08/20 01:53:38;;;;;;;1042.65;953.65;;;23.70;99.90;;;;;;5037924;28;20200;-80
2022/08/20 01:56:07;;;;;;;1049.07;959.72;;;23.60;99.90;;;;;;5042616;28;20214;-80
2022/08/20 01:58:39;;;;;;;1044.07;954.85;;;23.70;99.90;;;;;;5039198;28;20730;-79
2022/08/20 02:01:06;;;;;;;1040.55;951.47;;;23.60;99.90;;;;;;5038057;28;20187;-80
2022/08/20 02:03:33;;;;;;;1051.47;962.20;;;23.60;99.90;;;;;;5037622;28;20219;-80
2022/08/20 02:06:00;;;;;;;1048.93;959.53;;;23.60;99.90;;;;;;5042859;28;20559;-79
2022/08/20 02:08:27;;;;;;;1043.28;954.05;;;23.60;99.90;;;;;;5035937;28;20246;-79
2022/08/20 02:10:56;;;;;;;1044.60;955.47;;;23.50;99.90;;;;;;5033574;28;20195;-79
2022/08/20 02:13:23;;;;;;;1051.03;961.55;;;23.60;99.90;;;;;;5037177;28;20220;-80
2022/08/20 02:15:51;;;;;;;1035.97;947.13;;;23.50;99.90;;;;;;5045027;28;20202;-79
2022/08/20 02:18:19;;;;;;;1049.63;960.17;;;23.50;99.90;;;;;;5044837;28;20198;-79
2022/08/20 02:20:47;;;;;;;1046.55;957.30;;;23.50;99.90;;;;;;5050925;28;20196;-79
2022/08/20 02:23:15;;;;;;;1042.32;953.30;;;23.50;99.90;;;;;;5046479;28;20691;-80
2022/08/20 02:25:46;;;;;;;1039.63;950.70;;;23.50;99.90;;;;;;5049443;28;20676;-80
2022/08/20 02:28:14;;;;;;;1042.50;953.42;;;23.50;99.90;;;;;;5039283;28;20566;-80
2022/08/20 02:30:45;;;;;;;1037.55;948.45;;;23.40;99.90;;;;;;5045726;28;20298;-80
2022/08/20 02:33:19;;;;;;;1040.25;951.20;;;23.40;99.90;;;;;;5055936;28;20206;-80
2022/08/20 02:35:49;;;;;;;1033.78;945.13;;;23.40;99.90;;;;;;5041969;28;20198;-82
2022/08/20 02:38:17;;;;;;;1031.65;942.83;;;23.40;99.90;;;;;;5038278;28;20746;-81
2022/08/20 02:40:45;;;;;;;1037.03;948.10;;;23.40;99.90;;;;;;5043669;28;20191;-80
2022/08/20 02:43:13;;;;;;;1032.88;944.08;;;23.40;99.90;;;;;;5045949;28;20215;-80
2022/08/20 02:45:43;;;;;;;1054.15;964.38;;;23.40;99.90;;;;;;5053130;28;20199;-80
2022/08/20 02:48:14;;;;;;;1041.75;952.53;;;23.30;99.90;;;;;;5057534;28;20195;-80
2022/08/20 02:50:43;;;;;;;1031.85;943.20;;;23.30;99.90;;;;;;5057299;28;20214;-80
2022/08/20 02:53:10;;;;;;;1035.82;947.03;;;23.30;99.90;;;;;;5054997;28;20214;-79
2022/08/20 02:55:37;;;;;;;1032.63;944.03;;;23.30;99.90;;;;;;5056174;28;20208;-80
2022/08/20 02:58:04;;;;;;;1037.22;948.35;;;23.30;99.90;;;;;;5054737;28;20199;-79
2022/08/20 03:00:33;;;;;;;1039.95;950.90;;;23.30;99.90;;;;;;5054989;28;20214;-80
2022/08/20 03:03:00;;;;;;;1028.72;939.80;;;23.30;99.90;;;;;;5049999;28;20215;-80
2022/08/20 03:05:27;;;;;;;1034.80;946.13;;;23.20;99.90;;;;;;5047636;28;20203;-80
2022/08/20 03:07:56;;;;;;;1025.70;937.38;;;23.20;99.90;;;;;;5046169;28;20199;-79
2022/08/20 03:10:24;;;;;;;1027.40;938.88;;;23.20;99.90;;;;;;5050833;28;20195;-80
2022/08/20 03:12:51;;;;;;;1043.82;954.42;;;23.20;99.90;;;;;;5051701;28;20346;-80
2022/08/20 03:15:20;;;;;;;1037.45;948.50;;;23.20;99.90;;;;;;5051927;28;20199;-81
2022/08/20 03:17:47;;;;;;;1026.22;937.58;;;23.20;99.90;;;;;;5047965;28;20192;-80
2022/08/20 03:20:14;;;;;;;1025.20;936.85;;;23.10;99.90;;;;;;5045299;28;20594;-81
2022/08/20 03:22:41;;;;;;;1033.85;944.85;;;23.10;99.90;;;;;;5047431;28;20222;-80
2022/08/20 03:25:10;;;;;;;1037.82;948.78;;;23.10;99.90;;;;;;5047533;28;20203;-81
2022/08/20 03:27:37;;;;;;;1034.50;945.65;;;23.10;99.90;;;;;;5045096;28;20204;-80
2022/08/20 03:30:06;;;;;;;1040.57;951.35;;;23.10;99.90;;;;;;5057591;28;20227;-80
2022/08/20 03:32:33;;;;;;;1033.28;944.38;;;23.10;99.90;;;;;;5044217;28;20559;-80
2022/08/20 03:35:00;;;;;;;1031.55;942.83;;;23.10;99.90;;;;;;5038851;28;20291;-80
2022/08/20 03:37:29;;;;;;;1033.30;944.50;;;23.10;99.90;;;;;;5044476;28;20222;-81
2022/08/20 03:39:56;;;;;;;1037.90;948.90;;;23.10;99.90;;;;;;5040850;28;20191;-80
2022/08/20 03:42:24;;;;;;;1035.50;946.72;;;23.10;99.90;;;;;;5049915;28;20219;-80
2022/08/20 03:44:51;;;;;;;1019.92;931.38;;;23.00;99.90;;;;;;5050729;28;20198;-80
2022/08/20 03:47:18;;;;;;;1032.82;944.20;;;23.00;99.90;;;;;;5050422;28;20203;-80
2022/08/20 03:49:45;;;;;;;1029.85;941.22;;;23.00;99.90;;;;;;5050876;28;20205;-80
2022/08/20 03:52:12;;;;;;;1047.60;958.30;;;23.00;99.90;;;;;;5048624;28;20214;-81
2022/08/20 03:54:39;;;;;;;1028.80;939.92;;;23.00;99.90;;;;;;5048629;28;20200;-81
2022/08/20 03:57:05;;;;;;;1026.93;938.17;;;23.00;99.90;;;;;;5052729;28;20198;-81
2022/08/20 03:59:33;;;;;;;1031.20;942.35;;;23.00;99.90;;;;;;5046004;28;20202;-81
2022/08/20 04:02:00;;;;;;;1007.17;919.35;;;22.90;99.90;;;;;;5050277;28;20681;-81
2022/08/20 04:04:27;;;;;;;1032.43;943.63;;;22.90;99.90;;;;;;5049532;28;20220;-81
2022/08/20 04:06:54;;;;;;;1028.25;939.65;;;22.90;99.90;;;;;;5039734;28;20203;-80
2022/08/20 04:09:21;;;;;;;1022.75;934.25;;;22.90;99.90;;;;;;5046007;28;20641;-80
2022/08/20 04:11:48;;;;;;;1022.13;933.58;;;22.90;99.90;;;;;;5043261;28;20211;-81
2022/08/20 04:14:14;;;;;;;1021.00;932.65;;;22.90;99.90;;;;;;5037559;28;20195;-81
2022/08/20 04:16:44;;;;;;;1026.55;937.83;;;22.90;99.90;;;;;;5046958;28;20198;-81
2022/08/20 04:19:11;;;;;;;1013.90;925.75;;;22.90;99.90;;;;;;5052426;28;20710;-80
2022/08/20 04:21:38;;;;;;;1028.78;940.13;;;22.80;99.90;;;;;;5050497;28;20203;-79
2022/08/20 04:24:06;;;;;;;1025.60;936.90;;;22.90;99.90;;;;;;5046494;28;20217;-81
2022/08/20 04:26:36;;;;;;;1019.03;930.42;;;22.90;99.90;;;;;;5056972;28;20203;-82
2022/08/20 04:29:03;;;;;;;1016.88;928.42;;;22.80;99.90;;;;;;5040065;28;20561;-81
2022/08/20 04:31:32;;;;;;;1034.15;945.05;;;22.80;99.90;;;;;;5047552;28;20209;-81
2022/08/20 04:34:00;;;;;;;1016.50;928.05;;;22.80;99.90;;;;;;5049606;28;20202;-82
2022/08/20 04:36:27;;;;;;;1016.97;928.72;;;22.80;99.90;;;;;;5050318;28;20199;-81
2022/08/20 04:38:54;;;;;;;1024.75;936.17;;;22.80;99.90;;;;;;5049184;28;20199;-81
2022/08/20 04:41:22;;;;;;;1006.75;918.63;;;22.80;99.90;;;;;;5053290;28;20658;-81
2022/08/20 04:43:49;;;;;;;1039.78;950.38;;;22.80;99.90;;;;;;5052371;28;20229;-81
2022/08/20 04:46:15;;;;;;;1022.55;934.17;;;22.80;99.90;;;;;;5046340;28;20249;-82
2022/08/20 04:48:42;;;;;;;1016.17;928.00;;;22.70;99.90;;;;;;5040779;28;20660;-81
2022/08/20 04:51:13;;;;;;;1022.63;933.95;;;22.70;99.90;;;;;;5044041;28;20192;-81
2022/08/20 04:53:41;;;;;;;1019.90;931.47;;;22.80;99.90;;;;;;5049015;28;20305;-81
2022/08/20 04:56:10;;;;;;;1013.08;924.92;;;22.70;99.90;;;;;;5045666;28;20191;-81
2022/08/20 04:58:39;;;;;;;1017.40;928.92;;;22.70;99.90;;;;;;5047805;28;20624;-81
2022/08/20 05:01:09;;;;;;;1013.00;924.67;;;22.70;99.90;;;;;;5042596;28;20574;-81
2022/08/20 05:03:37;;;;;;;1008.97;921.03;;;22.70;99.90;;;;;;5052092;28;20210;-81
2022/08/20 05:06:04;;;;;;;1003.45;915.47;;;22.70;99.90;;;;;;5046503;28;20358;-81
2022/08/20 05:08:34;;;;;;;1011.05;922.63;;;22.60;99.90;;;;;;5045033;28;20205;-81
2022/08/20 05:11:01;;;;;;;1016.63;928.25;;;22.70;99.90;;;;;;5045746;28;20604;-81
2022/08/20 05:13:28;;;;;;;1020.47;931.97;;;22.70;99.90;;;;;;5041444;28;20195;-81
2022/08/20 05:16:00;;;;;;;1013.42;925.15;;;22.70;99.90;;;;;;5044840;28;20199;-81
2022/08/20 05:18:26;;;;;;;1020.25;931.75;;;22.70;99.90;;;;;;5052554;28;20206;-82
2022/08/20 05:21:00;;;;;;;1018.50;930.05;;;22.60;99.90;;;;;;5044343;28;20195;-81
2022/08/20 05:23:26;;;;;;;1012.53;924.28;;;22.60;99.90;;;;;;5047090;28;20310;-82
2022/08/20 05:25:57;;;;;;;1006.63;918.38;;;22.60;99.90;;;;;;5044534;28;20697;-82
2022/08/20 05:28:26;;;;;;;1007.72;919.80;;;22.60;99.90;;;;;;5048838;28;20218;-81
2022/08/20 05:30:53;;;;;;;1022.72;934.30;;;22.60;99.90;;;;;;5039821;28;20710;-81
2022/08/20 05:33:22;;;;;;;1026.90;938.10;;;22.60;99.90;;;;;;5043494;28;20199;-82
2022/08/20 05:35:51;;;;;;;1006.67;918.65;;;22.60;99.90;;;;;;5043107;28;20203;-82
2022/08/20 05:38:19;;;;;;;1025.50;936.83;;;22.60;99.90;;;;;;5046624;28;20285;-81
2022/08/20 05:40:47;;;;;;;1016.47;928.08;;;22.60;99.90;;;;;;5031545;28;20208;-81
2022/08/20 05:43:17;;;;;;;1003.85;915.85;;;22.60;99.90;;;;;;5050008;28;20559;-82
2022/08/20 05:45:45;;;;;;;1022.97;934.38;;;22.50;99.90;;;;;;5033987;28;20210;-80
2022/08/20 05:48:15;;;;;;;1014.58;926.60;;;22.60;99.90;;;;;;5050612;28;20199;-81
2022/08/20 05:50:44;;;;;;;1009.05;920.88;;;22.50;99.90;;;;;;5040307;28;20555;-81
2022/08/20 05:53:12;;;;;;;1008.00;919.97;;;22.50;99.90;;;;;;5039595;28;20203;-81
2022/08/20 05:55:39;;;;;;;1010.03;921.83;;;22.50;99.90;;;;;;5036905;28;20683;-83
2022/08/20 05:58:09;;;;;;;1011.83;923.65;;;22.50;99.90;;;;;;5038726;28;20201;-82
2022/08/20 06:00:37;;;;;;;1003.83;916.08;;;22.50;99.90;;;;;;5039125;28;20195;-83
2022/08/20 06:05:48;;;;;;;1020.13;931.88;;;22.50;99.90;;;;;;5043934;28;20684;-81
2022/08/20 06:08:15;;;;;;;997.70;910.15;;;22.50;99.90;;;;;;5045155;28;20601;-81
2022/08/20 06:10:42;;;;;;;999.85;912.15;;;22.50;99.90;;;;;;5033606;28;20223;-81
2022/08/20 06:13:10;;;;;;;1007.67;919.75;;;22.50;99.90;;;;;;5031330;28;20282;-81
2022/08/20 06:15:38;;;;;;;1019.53;931.03;;;22.50;99.90;;;;;;5038563;28;20195;-80
2022/08/20 06:18:07;;;;;;;983.92;896.80;;;22.50;99.90;;;;;;5035390;28;20191;-81
2022/08/20 06:20:34;;;;;;;1005.28;917.25;;;22.50;99.90;;;;;;5039910;28;20223;-81
2022/08/20 06:23:01;;;;;;;996.90;909.42;;;22.50;99.90;;;;;;5040142;28;20203;-80
2022/08/20 06:25:28;;;;;;;1009.00;920.90;;;22.50;99.90;;;;;;5041411;28;20202;-81
2022/08/20 06:27:55;;;;;;;1004.63;916.92;;;22.50;99.90;;;;;;5039116;28;20199;-81
2022/08/20 06:30:22;;;;;;;1003.00;915.42;;;22.60;99.90;;;;;;5039149;28;20203;-80
2022/08/20 06:32:50;;;;;;;997.90;910.33;;;22.60;99.90;;;;;;5055348;28;20196;-80
2022/08/20 06:35:17;;;;;;;1017.95;929.78;;;22.80;99.90;;;;;;5042099;28;20190;-80
2022/08/20 06:37:44;;;;;;;1018.97;930.55;;;23.00;99.90;;;;;;5040179;28;20199;-81
2022/08/20 06:40:13;;;;;;;1035.32;946.28;;;23.30;99.90;;;;;;5048658;28;20194;-81
2022/08/20 06:42:42;;;;;;;1027.90;939.38;;;23.50;99.90;;;;;;5039234;28;20199;-81
2022/08/20 06:45:10;;;;;;;1035.50;946.65;;;23.60;99.90;;;;;;5039650;28;20222;-80
2022/08/20 06:47:39;;;;;;;1027.40;939.00;;;23.50;99.90;;;;;;5046768;28;20206;-81
2022/08/20 06:50:12;;;;;;;1026.63;938.08;;;23.50;99.90;;;;;;5044890;28;20218;-80
2022/08/20 06:52:39;;;;;;;1030.90;942.67;;;23.40;99.90;;;;;;5049433;28;20695;-82
2022/08/20 06:55:07;;;;;;;1011.50;923.78;;;23.30;99.90;;;;;;5046419;28;20457;-81
2022/08/20 06:57:34;;;;;;;1029.30;940.88;;;23.20;99.90;;;;;;5043843;28;20199;-81
2022/08/20 07:00:01;;;;;;;1026.82;938.33;;;23.20;99.90;;;;;;5042437;28;20211;-80
2022/08/20 07:02:28;;;;;;;1021.85;933.50;;;23.10;99.90;;;;;;5041417;28;20690;-80
2022/08/20 07:04:55;;;;;;;1027.68;939.22;;;23.10;99.90;;;;;;5044837;28;20546;-81
2022/08/20 07:07:23;;;;;;;1031.88;943.28;;;23.00;99.90;;;;;;5044059;28;20203;-81
2022/08/20 07:09:50;;;;;;;1020.60;932.28;;;23.00;99.90;;;;;;5047969;28;20196;-81
2022/08/20 07:12:16;;;;;;;1009.03;921.25;;;23.00;99.90;;;;;;5044634;28;20552;-81
2022/08/20 07:14:43;;;;;;;1017.72;929.53;;;23.00;99.90;;;;;;5041066;28;20203;-81
2022/08/20 07:17:11;;;;;;;1012.83;924.85;;;23.00;99.90;;;;;;5042656;28;20199;-82
2022/08/20 07:19:38;;;;;;;1018.67;930.55;;;23.00;99.90;;;;;;5040757;28;20215;-81
2022/08/20 07:22:04;;;;;;;1023.88;935.70;;;23.00;99.90;;;;;;5037722;28;20562;-80
2022/08/20 07:24:32;;;;;;;1014.28;926.30;;;23.00;99.90;;;;;;5044983;28;20222;-81
2022/08/20 07:26:59;;;;;;;1021.20;933.05;;;23.00;99.90;;;;;;5050479;28;20218;-81
2022/08/20 07:32:33;;;;;;;1009.30;921.47;;;23.00;99.90;;;;;;5046555;28;20249;-81
2022/08/20 07:34:57;;;;;;;1013.50;925.65;;;23.00;99.90;;;;;;5042875;28;20210;-80
2022/08/20 07:37:24;;;;;;;1007.05;919.35;;;23.00;99.90;;;;;;5043863;28;20214;-81
2022/08/20 07:39:52;;;;;;;1006.03;918.30;;;23.00;99.90;;;;;;5048837;28;20231;-80
2022/08/20 07:42:19;;;;;;;996.60;909.38;;;22.90;99.90;;;;;;5053829;28;20199;-80
2022/08/20 07:44:46;;;;;;;1006.42;918.65;;;22.90;99.90;;;;;;5039011;28;20677;-80
2022/08/20 07:47:12;;;;;;;1014.92;926.90;;;22.90;99.90;;;;;;5042462;28;20199;-82
2022/08/20 07:49:40;;;;;;;1014.65;926.92;;;22.90;99.90;;;;;;5038470;28;20200;-82
2022/08/20 07:52:07;;;;;;;1013.53;925.58;;;22.90;99.90;;;;;;5038842;28;20649;-82
2022/08/20 07:54:34;;;;;;;998.00;910.80;;;22.90;99.90;;;;;;5043009;28;20206;-81
2022/08/20 07:57:03;;;;;;;1009.10;921.22;;;22.90;99.90;;;;;;5048035;28;20313;-81
2022/08/20 07:59:30;;;;;;;997.38;910.10;;;22.90;99.90;;;;;;5045018;28;20208;-82
2022/08/20 08:01:57;;;;;;;1010.88;923.08;;;22.90;99.90;;;;;;5041256;28;20412;-82
2022/08/20 08:04:24;;;;;;;1002.95;915.42;;;22.80;99.90;;;;;;5048878;28;20229;-82
2022/08/20 08:06:52;;;;;;;1003.83;916.33;;;22.80;99.90;;;;;;5044355;28;20195;-83
2022/08/20 08:09:19;;;;;;;1010.30;922.80;;;22.80;99.90;;;;;;5036535;28;20203;-86
2022/08/20 08:11:49;;;;;;;1008.08;920.63;;;22.80;99.90;;;;;;5044277;28;20689;-85
2022/08/20 08:14:22;;;;;;;1003.53;915.85;;;22.80;99.90;;;;;;5040741;28;20191;-86
2022/08/20 08:16:49;;;;;;;996.60;909.10;;;22.80;99.90;;;;;;5042064;28;20200;-82
2022/08/20 08:19:18;;;;;;;1010.28;922.70;;;22.80;99.90;;;;;;5040244;28;20692;-84
2022/08/20 08:21:44;;;;;;;1002.33;914.90;;;22.80;99.90;;;;;;5036282;28;20211;-84
2022/08/20 08:24:12;;;;;;;1020.78;932.80;;;22.80;99.90;;;;;;5047522;28;20214;-85
2022/08/20 08:26:39;;;;;;;1008.80;921.30;;;22.90;99.90;;;;;;5041763;28;20191;-84
2022/08/20 08:29:06;;;;;;;1004.30;916.70;;;22.90;99.90;;;;;;5046035;28;20570;-85
2022/08/20 08:31:34;;;;;;;1011.08;923.45;;;23.00;99.90;;;;;;5035833;28;20204;-85
2022/08/20 08:34:01;;;;;;;1006.95;919.30;;;23.00;99.90;;;;;;5043565;28;20204;-85
2022/08/20 08:36:28;;;;;;;1004.15;916.63;;;23.00;99.90;;;;;;5040234;28;20209;-85
2022/08/20 08:38:55;;;;;;;1005.08;917.53;;;23.10;99.90;;;;;;5041945;28;20206;-85
2022/08/20 08:41:30;;;;;;;1012.63;925.10;;;23.10;99.90;;;;;;5047174;28;20202;-85
2022/08/20 08:44:06;;;;;;;1014.08;926.35;;;23.10;99.90;;;;;;5039086;28;20306;-85
2022/08/20 08:46:40;;;;;;;1013.70;925.95;;;23.10;99.90;;;;;;5044142;28;20240;-85
2022/08/20 08:49:11;;;;;;;1003.60;916.28;;;23.10;99.90;;;;;;5048149;28;20277;-85
2022/08/20 08:51:41;;;;;;;1008.97;921.40;;;23.10;99.90;;;;;;5044919;28;20199;-85
2022/08/20 08:54:09;;;;;;;1008.38;920.80;;;23.10;99.90;;;;;;5042179;28;20206;-84
2022/08/20 08:56:36;;;;;;;1020.10;931.97;;;23.10;99.90;;;;;;5039793;28;20195;-86
2022/08/20 08:59:06;;;;;;;1021.85;934.10;;;23.10;99.90;;;;;;5042185;28;20269;-85
2022/08/20 09:01:45;;;;;;;1023.05;934.85;;;23.30;99.90;;;;;;5048226;28;20313;-87
2022/08/20 09:04:13;;;;;;;1019.78;931.58;;;23.30;99.90;;;;;;5044020;28;20731;-86
2022/08/20 09:06:40;;;;;;;1028.32;939.90;;;23.40;99.90;;;;;;5032224;28;20209;-86
2022/08/20 09:09:17;;;;;;;1038.93;949.88;;;23.50;99.90;;;;;;5048055;28;20261;-87
2022/08/20 09:11:47;;;;;;;1044.75;955.78;;;23.70;99.90;;;;;;5046103;28;20205;-85
2022/08/20 09:14:13;;;;;;;1048.32;959.20;;;23.90;99.90;;;;;;5033049;28;20199;-85
2022/08/20 09:16:42;;;;;;;1047.57;958.45;;;23.90;99.90;;;;;;5036137;28;20199;-85
2022/08/20 09:19:08;;;;;;;1053.55;964.13;;;24.00;99.90;;;;;;5036169;28;20215;-85
2022/08/20 09:21:35;;;;;;;1058.15;968.58;;;24.00;99.90;;;;;;5037164;28;20503;-83
2022/08/20 09:24:03;;;;;;;1066.25;976.47;;;24.10;99.90;;;;;;5034491;28;20195;-86
2022/08/20 09:26:30;;;;;;;1052.43;963.13;;;24.10;99.90;;;;;;5033140;28;20640;-85
2022/08/20 09:28:57;;;;;;;1071.95;981.83;;;24.10;99.90;;;;;;5038180;28;20208;-86
2022/08/20 09:31:24;;;;;;;1055.37;965.77;;;24.10;99.90;;;;;;5036090;28;20435;-84
2022/08/20 09:33:52;;;;;;;1061.43;971.60;;;24.10;99.90;;;;;;5036902;28;20448;-85
2022/08/20 09:36:19;;;;;;;1051.63;962.20;;;24.10;99.90;;;;;;5036799;28;20559;-86
2022/08/20 09:38:45;;;;;;;1069.67;979.67;;;24.20;99.90;;;;;;5032012;28;20647;-87
2022/08/20 09:41:12;;;;;;;1065.43;975.50;;;24.20;99.90;;;;;;5031265;28;20466;-83
2022/08/20 09:43:39;;;;;;;1070.47;980.60;;;24.20;99.90;;;;;;5036199;28;20204;-85
2022/08/20 09:46:06;;;;;;;1074.47;984.30;;;24.20;99.90;;;;;;5037849;28;20220;-86
2022/08/20 09:48:33;;;;;;;1068.10;978.45;;;24.30;99.90;;;;;;5037702;28;20208;-85
2022/08/20 09:51:01;;;;;;;1068.03;978.23;;;24.30;99.90;;;;;;5035320;28;20202;-85
2022/08/20 09:53:29;;;;;;;1067.83;978.03;;;24.30;99.90;;;;;;5038608;28;20974;-86
2022/08/20 09:55:57;;;;;;;1064.47;974.85;;;24.40;99.90;;;;;;5052751;28;20454;-86
2022/08/20 09:58:34;;;;;;;1063.85;974.10;;;24.40;99.90;;;;;;5048859;28;20221;-87
2022/08/20 10:01:06;;;;;;;1072.47;982.28;;;24.40;99.90;;;;;;5042808;28;20196;-84
2022/08/20 10:03:33;;;;;;;1064.47;974.75;;;24.40;99.90;;;;;;5043179;28;20201;-86
2022/08/20 10:06:01;;;;;;;1066.47;976.70;;;24.40;99.90;;;;;;5050327;28;20221;-86
2022/08/20 10:08:28;;;;;;;1061.25;971.55;;;24.30;99.90;;;;;;5050483;28;20195;-85
2022/08/20 10:10:55;;;;;;;1075.15;984.97;;;24.30;99.90;;;;;;5045360;28;20206;-84
2022/08/20 10:13:21;;;;;;;1056.20;966.90;;;24.20;99.90;;;;;;5046586;28;20217;-84
2022/08/20 10:15:48;;;;;;;1068.68;978.85;;;24.30;99.90;;;;;;5043429;28;20457;-84
2022/08/20 10:18:15;;;;;;;1055.68;966.22;;;24.20;99.90;;;;;;5044413;28;20651;-83
2022/08/20 10:20:42;;;;;;;1057.03;967.60;;;24.30;99.90;;;;;;5043745;28;20199;-83
2022/08/20 10:23:11;;;;;;;1070.33;980.47;;;24.30;99.90;;;;;;5041323;28;20469;-82
2022/08/20 10:25:38;;;;;;;1059.10;969.58;;;24.30;99.90;;;;;;5045167;28;20485;-83
2022/08/20 10:28:05;;;;;;;1072.53;982.27;;;24.40;99.90;;;;;;5047124;28;20555;-84
2022/08/20 10:30:32;;;;;;;1061.93;972.23;;;24.40;99.90;;;;;;5051306;28;20461;-83
2022/08/20 10:32:59;;;;;;;1073.50;983.23;;;24.40;99.90;;;;;;5048120;28;20453;-81
2022/08/20 10:35:26;;;;;;;1078.50;988.23;;;24.40;99.90;;;;;;5039272;28;20956;-84
2022/08/20 10:37:53;;;;;;;1058.40;969.00;;;24.50;99.90;;;;;;5053367;28;20438;-85
2022/08/20 10:40:21;;;;;;;1080.50;990.20;;;24.50;99.90;;;;;;5045425;28;20457;-84
2022/08/20 10:42:48;;;;;;;1077.32;987.15;;;24.50;99.90;;;;;;5048486;28;20437;-82
2022/08/20 10:45:16;;;;;;;1074.57;984.57;;;24.50;99.90;;;;;;5044067;28;20220;-84
2022/08/20 10:47:44;;;;;;;1062.40;972.67;;;24.40;99.90;;;;;;5058644;28;20831;-82
2022/08/20 10:50:14;;;;;;;1061.18;971.80;;;24.40;99.90;;;;;;5046101;28;20190;-85
2022/08/20 10:52:41;;;;;;;1065.60;975.88;;;24.40;99.90;;;;;;5046383;28;20203;-86
2022/08/20 10:55:08;;;;;;;1066.43;976.73;;;24.30;99.90;;;;;;5044929;28;20207;-85
2022/08/20 10:57:39;;;;;;;1069.22;979.42;;;24.30;99.90;;;;;;5046559;28;20437;-86
2022/08/20 11:00:08;;;;;;;1069.33;979.47;;;24.30;99.90;;;;;;5042627;28;20200;-85
2022/08/20 11:02:36;;;;;;;1060.18;970.75;;;24.30;99.90;;;;;;5043401;28;20957;-84
2022/08/20 11:05:04;;;;;;;1063.45;973.72;;;24.20;99.90;;;;;;5045576;28;20223;-85
2022/08/20 11:07:33;;;;;;;1058.63;969.22;;;24.20;99.90;;;;;;5054774;28;20202;-86
2022/08/20 11:10:01;;;;;;;1052.82;963.50;;;24.20;99.90;;;;;;5071650;28;20191;-85
2022/08/20 11:12:28;;;;;;;1066.05;976.40;;;24.20;99.90;;;;;;5050121;28;20227;-85
2022/08/20 11:14:56;;;;;;;1049.90;961.15;;;24.10;99.90;;;;;;5049402;28;20211;-85
2022/08/20 11:17:26;;;;;;;1065.38;975.65;;;24.20;99.90;;;;;;5040598;28;20203;-85
2022/08/20 11:19:53;;;;;;;1066.07;976.33;;;24.10;99.90;;;;;;5050741;28;20228;-84
2022/08/20 11:22:20;;;;;;;1050.95;961.70;;;24.00;99.90;;;;;;5056375;28;20195;-85
2022/08/20 11:24:48;;;;;;;1058.07;968.40;;;24.00;99.90;;;;;;5066684;28;20225;-87
2022/08/20 11:27:21;;;;;;;1056.25;966.72;;;24.00;99.90;;;;;;5053755;28;20207;-84
2022/08/20 11:29:48;;;;;;;1053.65;964.22;;;24.00;99.90;;;;;;5055287;28;20741;-84
2022/08/20 11:32:16;;;;;;;1048.43;959.28;;;23.90;99.90;;;;;;5053091;28;20207;-87
2022/08/20 11:34:43;;;;;;;1057.35;967.85;;;23.90;99.90;;;;;;5045735;28;20330;-85
2022/08/20 11:37:10;;;;;;;1058.15;968.47;;;23.90;99.90;;;;;;5049499;28;20203;-86
2022/08/20 11:39:36;;;;;;;1038.60;949.78;;;23.90;99.90;;;;;;5046828;28;20207;-82
2022/08/20 11:42:03;;;;;;;1044.88;955.88;;;23.90;99.90;;;;;;5038646;28;20298;-85
2022/08/20 11:44:33;;;;;;;1039.80;950.92;;;23.90;99.90;;;;;;5045158;28;20294;-85
2022/08/20 11:47:02;;;;;;;1050.10;961.05;;;23.90;99.90;;;;;;5052711;28;20550;-84
2022/08/20 11:49:30;;;;;;;1050.85;961.63;;;23.90;99.90;;;;;;5042759;28;20198;-84
2022/08/20 11:51:57;;;;;;;1039.25;950.35;;;23.90;99.90;;;;;;5042588;28;20570;-84
2022/08/20 11:54:24;;;;;;;1049.10;960.00;;;24.00;99.90;;;;;;5050456;28;20745;-84
2022/08/20 11:56:51;;;;;;;1052.45;963.03;;;24.00;99.90;;;;;;5055204;28;20693;-84
2022/08/20 11:59:18;;;;;;;1057.03;967.42;;;24.10;99.90;;;;;;5047506;28;20195;-84
2022/08/20 12:01:44;;;;;;;1043.15;954.17;;;24.10;99.90;;;;;;5047323;28;20282;-86
2022/08/20 12:04:11;;;;;;;1067.38;977.20;;;24.20;99.90;;;;;;5047751;28;20298;-83
2022/08/20 12:06:40;;;;;;;1061.63;971.83;;;24.20;99.90;;;;;;5063971;28;20223;-86
2022/08/20 12:09:06;;;;;;;1063.60;973.85;;;24.20;99.90;;;;;;5055870;28;20854;-87